sensor_id;sensor_type;location;lat;lon;timestamp;temperature;humidity
47521;DHT22;32291;52.010;4.446;2022-11-18T00:00:50;8.10;99.90
47521;DHT22;32291;52.010;4.446;2022-11-18T00:01:53;8.10;99.90
47521;DHT22;32291;52.010;4.446;2022-11-18T00:02:55;8.20;99.90
47521;DHT22;32291;52.010;4.446;2022-11-18T00:03:57;8.10;99.90
47521;DHT22;32291;52.010;4.446;2022-11-18T00:04:59;8.10;99.90
47521;DHT22;32291;52.010;4.446;2022-11-18T00:06:02;8.10;99.90
47521;DHT22;32291;52.010;4.446;2022-11-18T00:07:05;8.10;99.90
47521;DHT22;32291;52.010;4.446;2022-11-18T00:08:07;8.10;99.90
47521;DHT22;32291;52.010;4.446;2022-11-18T00:09:09;8.10;99.90
47521;DHT22;32291;52.010;4.446;2022-11-18T00:10:11;8.10;99.90
47521;DHT22;32291;52.010;4.446;2022-11-18T00:11:17;8.10;99.90
47521;DHT22;32291;52.010;4.446;2022-11-18T00:12:39;8.10;99.90
47521;DHT22;32291;52.010;4.446;2022-11-18T00:14:00;8.10;99.90
47521;DHT22;32291;52.010;4.446;2022-11-18T00:15:21;8.10;99.90
47521;DHT22;32291;52.010;4.446;2022-11-18T00:16:23;8.50;99.90
47521;DHT22;32291;52.010;4.446;2022-11-18T00:17:25;8.30;99.90
47521;DHT22;32291;52.010;4.446;2022-11-18T00:18:27;8.30;99.90
47521;DHT22;32291;52.010;4.446;2022-11-18T00:19:32;8.20;99.90
47521;DHT22;32291;52.010;4.446;2022-11-18T00:20:38;8.00;99.90
47521;DHT22;32291;52.010;4.446;2022-11-18T00:21:40;8.00;99.90
47521;DHT22;32291;52.010;4.446;2022-11-18T00:22:45;8.00;99.90
47521;DHT22;32291;52.010;4.446;2022-11-18T00:23:48;8.00;99.90
47521;DHT22;32291;52.010;4.446;2022-11-18T00:24:49;8.10;99.90
47521;DHT22;32291;52.010;4.446;2022-11-18T00:25:51;8.00;99.90
47521;DHT22;32291;52.010;4.446;2022-11-18T00:26:53;7.90;99.90
47521;DHT22;32291;52.010;4.446;2022-11-18T00:27:56;7.90;99.90
47521;DHT22;32291;52.010;4.446;2022-11-18T00:28:58;7.90;99.90
47521;DHT22;32291;52.010;4.446;2022-11-18T00:30:01;7.90;99.90
47521;DHT22;32291;52.010;4.446;2022-11-18T00:31:11;7.90;99.90
47521;DHT22;32291;52.010;4.446;2022-11-18T00:32:14;7.90;99.90
47521;DHT22;32291;52.010;4.446;2022-11-18T00:33:16;7.90;99.90
47521;DHT22;32291;52.010;4.446;2022-11-18T00:34:18;7.90;99.90
47521;DHT22;32291;52.010;4.446;2022-11-18T00:35:20;7.90;99.90
47521;DHT22;32291;52.010;4.446;2022-11-18T00:36:22;7.90;99.90
47521;DHT22;32291;52.010;4.446;2022-11-18T00:37:25;7.90;99.90
47521;DHT22;32291;52.010;4.446;2022-11-18T00:38:28;7.90;99.90
47521;DHT22;32291;52.010;4.446;2022-11-18T00:39:30;8.00;99.90
47521;DHT22;32291;52.010;4.446;2022-11-18T00:40:32;8.00;99.90
47521;DHT22;32291;52.010;4.446;2022-11-18T00:41:34;8.00;99.90
47521;DHT22;32291;52.010;4.446;2022-11-18T00:42:55;8.00;99.90
47521;DHT22;32291;52.010;4.446;2022-11-18T00:43:57;8.00;99.90
47521;DHT22;32291;52.010;4.446;2022-11-18T00:44:59;8.00;99.90
47521;DHT22;32291;52.010;4.446;2022-11-18T00:46:03;8.00;99.90
47521;DHT22;32291;52.010;4.446;2022-11-18T00:47:10;8.00;99.90
47521;DHT22;32291;52.010;4.446;2022-11-18T00:48:12;8.00;99.90
47521;DHT22;32291;52.010;4.446;2022-11-18T00:49:14;8.00;99.90
47521;DHT22;32291;52.010;4.446;2022-11-18T00:50:16;8.00;99.90
47521;DHT22;32291;52.010;4.446;2022-11-18T00:51:18;8.00;99.90
47521;DHT22;32291;52.010;4.446;2022-11-18T00:52:20;8.00;99.90
47521;DHT22;32291;52.010;4.446;2022-11-18T00:53:23;8.00;99.90
47521;DHT22;32291;52.010;4.446;2022-11-18T00:54:27;8.00;99.90
47521;DHT22;32291;52.010;4.446;2022-11-18T00:55:29;7.90;99.90
47521;DHT22;32291;52.010;4.446;2022-11-18T00:56:32;7.90;99.90
47521;DHT22;32291;52.010;4.446;2022-11-18T00:57:34;8.10;99.90
47521;DHT22;32291;52.010;4.446;2022-11-18T00:58:36;8.10;99.90
47521;DHT22;32291;52.010;4.446;2022-11-18T00:59:38;7.90;99.90
47521;DHT22;32291;52.010;4.446;2022-11-18T01:00:41;7.90;99.90
47521;DHT22;32291;52.010;4.446;2022-11-18T01:01:46;7.90;99.90
47521;DHT22;32291;52.010;4.446;2022-11-18T01:02:49;7.90;99.90
47521;DHT22;32291;52.010;4.446;2022-11-18T01:03:51;7.90;99.90
47521;DHT22;32291;52.010;4.446;2022-11-18T01:04:53;7.90;99.90
47521;DHT22;32291;52.010;4.446;2022-11-18T01:05:55;7.90;99.90
47521;DHT22;32291;52.010;4.446;2022-11-18T01:06:58;7.90;99.90
47521;DHT22;32291;52.010;4.446;2022-11-18T01:08:00;7.80;99.90
47521;DHT22;32291;52.010;4.446;2022-11-18T01:09:02;7.90;99.90
47521;DHT22;32291;52.010;4.446;2022-11-18T01:10:05;7.90;99.90
47521;DHT22;32291;52.010;4.446;2022-11-18T01:11:07;7.90;99.90
47521;DHT22;32291;52.010;4.446;2022-11-18T01:12:28;7.90;99.90
47521;DHT22;32291;52.010;4.446;2022-11-18T01:13:50;7.80;99.90
47521;DHT22;32291;52.010;4.446;2022-11-18T01:14:53;7.80;99.90
47521;DHT22;32291;52.010;4.446;2022-11-18T01:15:56;7.80;99.90
47521;DHT22;32291;52.010;4.446;2022-11-18T01:16:59;7.80;99.90
47521;DHT22;32291;52.010;4.446;2022-11-18T01:18:01;8.10;99.90
47521;DHT22;32291;52.010;4.446;2022-11-18T01:19:04;7.70;99.90
47521;DHT22;32291;52.010;4.446;2022-11-18T01:20:06;7.70;99.90
47521;DHT22;32291;52.010;4.446;2022-11-18T01:21:10;7.80;99.90
47521;DHT22;32291;52.010;4.446;2022-11-18T01:22:12;7.80;99.90
47521;DHT22;32291;52.010;4.446;2022-11-18T01:23:15;7.80;99.90
47521;DHT22;32291;52.010;4.446;2022-11-18T01:24:19;7.80;99.90
47521;DHT22;32291;52.010;4.446;2022-11-18T01:25:21;7.80;99.90
47521;DHT22;32291;52.010;4.446;2022-11-18T01:26:23;7.80;99.90
47521;DHT22;32291;52.010;4.446;2022-11-18T01:27:25;7.70;99.90
47521;DHT22;32291;52.010;4.446;2022-11-18T01:28:27;7.80;99.90
47521;DHT22;32291;52.010;4.446;2022-11-18T01:29:29;7.70;99.90
47521;DHT22;32291;52.010;4.446;2022-11-18T01:30:35;7.70;99.90
47521;DHT22;32291;52.010;4.446;2022-11-18T01:31:40;7.70;99.90
47521;DHT22;32291;52.010;4.446;2022-11-18T01:32:43;7.80;99.90
47521;DHT22;32291;52.010;4.446;2022-11-18T01:33:45;7.70;99.90
47521;DHT22;32291;52.010;4.446;2022-11-18T01:34:48;7.80;99.90
47521;DHT22;32291;52.010;4.446;2022-11-18T01:35:50;7.70;99.90
47521;DHT22;32291;52.010;4.446;2022-11-18T01:36:52;7.80;99.90
47521;DHT22;32291;52.010;4.446;2022-11-18T01:37:54;7.70;99.90
47521;DHT22;32291;52.010;4.446;2022-11-18T01:38:56;7.80;99.90
47521;DHT22;32291;52.010;4.446;2022-11-18T01:39:58;7.70;99.90
47521;DHT22;32291;52.010;4.446;2022-11-18T01:41:00;7.80;99.90
47521;DHT22;32291;52.010;4.446;2022-11-18T01:42:02;7.80;99.90
47521;DHT22;32291;52.010;4.446;2022-11-18T01:43:13;7.80;99.90
47521;DHT22;32291;52.010;4.446;2022-11-18T01:44:58;7.70;99.90
47521;DHT22;32291;52.010;4.446;2022-11-18T01:46:09;7.70;99.90
47521;DHT22;32291;52.010;4.446;2022-11-18T01:47:11;8.10;99.90
47521;DHT22;32291;52.010;4.446;2022-11-18T01:48:26;7.70;99.90
47521;DHT22;32291;52.010;4.446;2022-11-18T01:49:34;7.90;99.90
47521;DHT22;32291;52.010;4.446;2022-11-18T01:50:44;7.70;99.90
47521;DHT22;32291;52.010;4.446;2022-11-18T01:51:57;7.80;99.90
47521;DHT22;32291;52.010;4.446;2022-11-18T01:53:08;7.60;99.90
47521;DHT22;32291;52.010;4.446;2022-11-18T01:54:28;7.60;99.90
47521;DHT22;32291;52.010;4.446;2022-11-18T01:55:39;7.60;99.90
47521;DHT22;32291;52.010;4.446;2022-11-18T01:56:50;7.70;99.90
47521;DHT22;32291;52.010;4.446;2022-11-18T01:58:14;7.50;99.90
47521;DHT22;32291;52.010;4.446;2022-11-18T01:59:30;7.60;99.90
47521;DHT22;32291;52.010;4.446;2022-11-18T02:00:40;7.60;99.90
47521;DHT22;32291;52.010;4.446;2022-11-18T02:01:43;7.50;99.90
47521;DHT22;32291;52.010;4.446;2022-11-18T02:02:46;7.50;99.90
47521;DHT22;32291;52.010;4.446;2022-11-18T02:03:50;7.50;99.90
47521;DHT22;32291;52.010;4.446;2022-11-18T02:04:55;7.70;99.90
47521;DHT22;32291;52.010;4.446;2022-11-18T02:06:00;7.50;99.90
47521;DHT22;32291;52.010;4.446;2022-11-18T02:07:06;7.60;99.90
47521;DHT22;32291;52.010;4.446;2022-11-18T02:08:10;7.60;99.90
47521;DHT22;32291;52.010;4.446;2022-11-18T02:09:14;7.60;99.90
47521;DHT22;32291;52.010;4.446;2022-11-18T02:10:20;7.60;99.90
47521;DHT22;32291;52.010;4.446;2022-11-18T02:11:25;7.60;99.90
47521;DHT22;32291;52.010;4.446;2022-11-18T02:12:46;7.60;99.90
47521;DHT22;32291;52.010;4.446;2022-11-18T02:13:51;7.60;99.90
47521;DHT22;32291;52.010;4.446;2022-11-18T02:14:53;7.60;99.90
47521;DHT22;32291;52.010;4.446;2022-11-18T02:16:10;7.60;99.90
47521;DHT22;32291;52.010;4.446;2022-11-18T02:19:17;7.60;99.90
47521;DHT22;32291;52.010;4.446;2022-11-18T02:20:41;7.60;99.90
47521;DHT22;32291;52.010;4.446;2022-11-18T02:25:52;7.50;99.90
47521;DHT22;32291;52.010;4.446;2022-11-18T02:29:13;7.50;99.90
47521;DHT22;32291;52.010;4.446;2022-11-18T02:30:23;7.40;99.90
47521;DHT22;32291;52.010;4.446;2022-11-18T02:33:23;7.50;99.90
47521;DHT22;32291;52.010;4.446;2022-11-18T02:34:54;7.50;99.90
47521;DHT22;32291;52.010;4.446;2022-11-18T02:36:57;7.50;99.90
47521;DHT22;32291;52.010;4.446;2022-11-18T02:38:10;7.50;99.90
47521;DHT22;32291;52.010;4.446;2022-11-18T02:39:35;7.50;99.90
47521;DHT22;32291;52.010;4.446;2022-11-18T02:41:02;7.50;99.90
47521;DHT22;32291;52.010;4.446;2022-11-18T02:42:14;7.50;99.90
47521;DHT22;32291;52.010;4.446;2022-11-18T02:43:29;7.50;99.90
47521;DHT22;32291;52.010;4.446;2022-11-18T02:44:41;7.50;99.90
47521;DHT22;32291;52.010;4.446;2022-11-18T02:45:56;7.50;99.90
47521;DHT22;32291;52.010;4.446;2022-11-18T02:47:05;7.50;99.90
47521;DHT22;32291;52.010;4.446;2022-11-18T02:48:13;7.50;99.90
47521;DHT22;32291;52.010;4.446;2022-11-18T02:49:26;7.50;99.90
47521;DHT22;32291;52.010;4.446;2022-11-18T02:50:43;7.50;99.90
47521;DHT22;32291;52.010;4.446;2022-11-18T02:51:51;7.50;99.90
47521;DHT22;32291;52.010;4.446;2022-11-18T02:52:58;7.50;99.90
47521;DHT22;32291;52.010;4.446;2022-11-18T02:54:06;7.50;99.90
47521;DHT22;32291;52.010;4.446;2022-11-18T02:55:13;7.50;99.90
47521;DHT22;32291;52.010;4.446;2022-11-18T02:56:19;7.50;99.90
47521;DHT22;32291;52.010;4.446;2022-11-18T02:57:24;7.50;99.90
47521;DHT22;32291;52.010;4.446;2022-11-18T02:58:30;7.40;99.90
47521;DHT22;32291;52.010;4.446;2022-11-18T02:59:32;7.50;99.90
47521;DHT22;32291;52.010;4.446;2022-11-18T03:00:35;7.50;99.90
47521;DHT22;32291;52.010;4.446;2022-11-18T03:01:37;7.60;99.90
47521;DHT22;32291;52.010;4.446;2022-11-18T03:02:45;7.50;99.90
47521;DHT22;32291;52.010;4.446;2022-11-18T03:03:50;7.50;99.90
47521;DHT22;32291;52.010;4.446;2022-11-18T03:04:55;7.50;99.90
47521;DHT22;32291;52.010;4.446;2022-11-18T03:07:33;7.50;99.90
47521;DHT22;32291;52.010;4.446;2022-11-18T03:08:48;7.50;99.90
47521;DHT22;32291;52.010;4.446;2022-11-18T03:10:11;7.50;99.90
47521;DHT22;32291;52.010;4.446;2022-11-18T03:11:19;7.50;99.90
47521;DHT22;32291;52.010;4.446;2022-11-18T03:12:45;7.50;99.90
47521;DHT22;32291;52.010;4.446;2022-11-18T03:16:10;7.50;99.90
47521;DHT22;32291;52.010;4.446;2022-11-18T03:20:36;7.60;99.90
47521;DHT22;32291;52.010;4.446;2022-11-18T03:22:24;7.60;99.90
47521;DHT22;32291;52.010;4.446;2022-11-18T03:23:56;7.70;99.90
47521;DHT22;32291;52.010;4.446;2022-11-18T03:25:06;7.70;99.90
47521;DHT22;32291;52.010;4.446;2022-11-18T03:26:37;7.80;99.90
47521;DHT22;32291;52.010;4.446;2022-11-18T03:28:02;7.90;99.90
47521;DHT22;32291;52.010;4.446;2022-11-18T03:29:37;7.90;99.90
47521;DHT22;32291;52.010;4.446;2022-11-18T03:32:25;8.00;99.90
47521;DHT22;32291;52.010;4.446;2022-11-18T03:33:44;8.00;99.90
47521;DHT22;32291;52.010;4.446;2022-11-18T03:34:58;8.10;99.90
47521;DHT22;32291;52.010;4.446;2022-11-18T03:36:09;7.60;99.90
47521;DHT22;32291;52.010;4.446;2022-11-18T03:37:17;8.20;99.90
47521;DHT22;32291;52.010;4.446;2022-11-18T03:38:28;8.20;99.90
47521;DHT22;32291;52.010;4.446;2022-11-18T03:39:41;8.10;99.90
47521;DHT22;32291;52.010;4.446;2022-11-18T03:40:56;8.20;99.90
47521;DHT22;32291;52.010;4.446;2022-11-18T03:42:34;8.20;99.90
47521;DHT22;32291;52.010;4.446;2022-11-18T03:43:48;8.20;99.90
47521;DHT22;32291;52.010;4.446;2022-11-18T03:45:22;8.20;99.90
47521;DHT22;32291;52.010;4.446;2022-11-18T03:46:50;8.20;99.90
47521;DHT22;32291;52.010;4.446;2022-11-18T03:48:16;8.20;99.90
47521;DHT22;32291;52.010;4.446;2022-11-18T03:49:44;8.10;99.90
47521;DHT22;32291;52.010;4.446;2022-11-18T03:51:04;8.20;99.90
47521;DHT22;32291;52.010;4.446;2022-11-18T03:52:18;8.10;99.90
47521;DHT22;32291;52.010;4.446;2022-11-18T03:53:31;8.10;99.90
47521;DHT22;32291;52.010;4.446;2022-11-18T03:54:39;8.10;99.90
47521;DHT22;32291;52.010;4.446;2022-11-18T03:55:50;8.10;99.90
47521;DHT22;32291;52.010;4.446;2022-11-18T03:57:13;8.00;99.90
47521;DHT22;32291;52.010;4.446;2022-11-18T03:58:52;8.00;99.90
47521;DHT22;32291;52.010;4.446;2022-11-18T04:00:10;7.90;99.90
47521;DHT22;32291;52.010;4.446;2022-11-18T04:01:32;7.90;99.90
47521;DHT22;32291;52.010;4.446;2022-11-18T04:02:48;7.90;99.90
47521;DHT22;32291;52.010;4.446;2022-11-18T04:03:50;7.90;99.90
47521;DHT22;32291;52.010;4.446;2022-11-18T04:04:54;7.80;99.90
47521;DHT22;32291;52.010;4.446;2022-11-18T04:09:16;7.80;99.90
47521;DHT22;32291;52.010;4.446;2022-11-18T04:10:48;7.70;99.90
47521;DHT22;32291;52.010;4.446;2022-11-18T04:13:05;7.70;99.90
47521;DHT22;32291;52.010;4.446;2022-11-18T04:14:17;7.60;99.90
47521;DHT22;32291;52.010;4.446;2022-11-18T04:15:21;7.60;99.90
47521;DHT22;32291;52.010;4.446;2022-11-18T04:16:25;7.60;99.90
47521;DHT22;32291;52.010;4.446;2022-11-18T04:17:28;7.90;99.90
47521;DHT22;32291;52.010;4.446;2022-11-18T04:18:30;7.70;99.90
47521;DHT22;32291;52.010;4.446;2022-11-18T04:19:32;7.70;99.90
47521;DHT22;32291;52.010;4.446;2022-11-18T04:20:34;7.70;99.90
47521;DHT22;32291;52.010;4.446;2022-11-18T04:21:37;7.80;99.90
47521;DHT22;32291;52.010;4.446;2022-11-18T04:22:39;7.80;99.90
47521;DHT22;32291;52.010;4.446;2022-11-18T04:23:41;7.80;99.90
47521;DHT22;32291;52.010;4.446;2022-11-18T04:24:43;7.90;99.90
47521;DHT22;32291;52.010;4.446;2022-11-18T04:25:45;7.90;99.90
47521;DHT22;32291;52.010;4.446;2022-11-18T04:26:47;7.90;99.90
47521;DHT22;32291;52.010;4.446;2022-11-18T04:27:50;7.90;99.90
47521;DHT22;32291;52.010;4.446;2022-11-18T04:28:52;8.00;99.90
47521;DHT22;32291;52.010;4.446;2022-11-18T04:29:55;8.00;99.90
47521;DHT22;32291;52.010;4.446;2022-11-18T04:30:57;8.00;99.90
47521;DHT22;32291;52.010;4.446;2022-11-18T04:32:00;8.00;99.90
47521;DHT22;32291;52.010;4.446;2022-11-18T04:33:04;8.00;99.90
47521;DHT22;32291;52.010;4.446;2022-11-18T04:34:06;8.00;99.90
47521;DHT22;32291;52.010;4.446;2022-11-18T04:35:08;8.00;99.90
47521;DHT22;32291;52.010;4.446;2022-11-18T04:36:10;8.00;99.90
47521;DHT22;32291;52.010;4.446;2022-11-18T04:37:12;8.40;99.90
47521;DHT22;32291;52.010;4.446;2022-11-18T04:38:14;8.00;99.90
47521;DHT22;32291;52.010;4.446;2022-11-18T04:39:16;8.00;99.90
47521;DHT22;32291;52.010;4.446;2022-11-18T04:40:21;8.00;99.90
47521;DHT22;32291;52.010;4.446;2022-11-18T04:41:23;8.00;99.90
47521;DHT22;32291;52.010;4.446;2022-11-18T04:42:45;8.00;99.90
47521;DHT22;32291;52.010;4.446;2022-11-18T04:43:47;8.00;99.90
47521;DHT22;32291;52.010;4.446;2022-11-18T04:44:49;8.00;99.90
47521;DHT22;32291;52.010;4.446;2022-11-18T04:45:51;8.10;99.90
47521;DHT22;32291;52.010;4.446;2022-11-18T04:46:54;8.00;99.90
47521;DHT22;32291;52.010;4.446;2022-11-18T04:47:58;8.00;99.90
47521;DHT22;32291;52.010;4.446;2022-11-18T04:49:00;8.00;99.90
47521;DHT22;32291;52.010;4.446;2022-11-18T04:50:03;8.10;99.90
47521;DHT22;32291;52.010;4.446;2022-11-18T04:51:06;8.00;99.90
47521;DHT22;32291;52.010;4.446;2022-11-18T04:52:08;8.00;99.90
47521;DHT22;32291;52.010;4.446;2022-11-18T04:53:11;8.10;99.90
47521;DHT22;32291;52.010;4.446;2022-11-18T04:54:14;8.10;99.90
47521;DHT22;32291;52.010;4.446;2022-11-18T04:55:17;8.00;99.90
47521;DHT22;32291;52.010;4.446;2022-11-18T04:56:21;8.00;99.90
47521;DHT22;32291;52.010;4.446;2022-11-18T04:57:23;8.00;99.90
47521;DHT22;32291;52.010;4.446;2022-11-18T04:58:25;8.10;99.90
47521;DHT22;32291;52.010;4.446;2022-11-18T04:59:28;8.10;99.90
47521;DHT22;32291;52.010;4.446;2022-11-18T05:00:30;8.10;99.90
47521;DHT22;32291;52.010;4.446;2022-11-18T05:01:33;8.10;99.90
47521;DHT22;32291;52.010;4.446;2022-11-18T05:02:35;8.10;99.90
47521;DHT22;32291;52.010;4.446;2022-11-18T05:03:37;8.10;99.90
47521;DHT22;32291;52.010;4.446;2022-11-18T05:04:40;8.00;99.90
47521;DHT22;32291;52.010;4.446;2022-11-18T05:05:43;8.00;99.90
47521;DHT22;32291;52.010;4.446;2022-11-18T05:06:45;8.00;99.90
47521;DHT22;32291;52.010;4.446;2022-11-18T05:07:48;7.90;99.90
47521;DHT22;32291;52.010;4.446;2022-11-18T05:08:51;7.90;99.90
47521;DHT22;32291;52.010;4.446;2022-11-18T05:09:54;7.80;99.90
47521;DHT22;32291;52.010;4.446;2022-11-18T05:10:55;7.80;99.90
47521;DHT22;32291;52.010;4.446;2022-11-18T05:12:17;7.80;99.90
47521;DHT22;32291;52.010;4.446;2022-11-18T05:13:38;7.80;99.90
47521;DHT22;32291;52.010;4.446;2022-11-18T05:14:40;7.70;99.90
47521;DHT22;32291;52.010;4.446;2022-11-18T05:15:42;7.70;99.90
47521;DHT22;32291;52.010;4.446;2022-11-18T05:16:44;7.70;99.90
47521;DHT22;32291;52.010;4.446;2022-11-18T05:17:47;7.60;99.90
47521;DHT22;32291;52.010;4.446;2022-11-18T05:18:49;7.60;99.90
47521;DHT22;32291;52.010;4.446;2022-11-18T05:19:51;7.60;99.90
47521;DHT22;32291;52.010;4.446;2022-11-18T05:20:53;7.60;99.90
47521;DHT22;32291;52.010;4.446;2022-11-18T05:21:55;7.60;99.90
47521;DHT22;32291;52.010;4.446;2022-11-18T05:22:57;7.60;99.90
47521;DHT22;32291;52.010;4.446;2022-11-18T05:24:00;7.50;99.90
47521;DHT22;32291;52.010;4.446;2022-11-18T05:25:05;7.50;99.90
47521;DHT22;32291;52.010;4.446;2022-11-18T05:26:09;7.50;99.90
47521;DHT22;32291;52.010;4.446;2022-11-18T05:27:13;7.60;99.90
47521;DHT22;32291;52.010;4.446;2022-11-18T05:28:16;7.60;99.90
47521;DHT22;32291;52.010;4.446;2022-11-18T05:29:18;7.50;99.90
47521;DHT22;32291;52.010;4.446;2022-11-18T05:30:21;7.50;99.90
47521;DHT22;32291;52.010;4.446;2022-11-18T05:31:23;7.50;99.90
47521;DHT22;32291;52.010;4.446;2022-11-18T05:32:25;7.50;99.90
47521;DHT22;32291;52.010;4.446;2022-11-18T05:33:27;7.50;99.90
47521;DHT22;32291;52.010;4.446;2022-11-18T05:34:29;7.50;99.90
47521;DHT22;32291;52.010;4.446;2022-11-18T05:35:35;7.50;99.90
47521;DHT22;32291;52.010;4.446;2022-11-18T05:36:38;7.50;99.90
47521;DHT22;32291;52.010;4.446;2022-11-18T05:37:41;7.50;99.90
47521;DHT22;32291;52.010;4.446;2022-11-18T05:38:43;7.90;99.90
47521;DHT22;32291;52.010;4.446;2022-11-18T05:39:46;7.50;99.90
47521;DHT22;32291;52.010;4.446;2022-11-18T05:40:47;7.50;99.90
47521;DHT22;32291;52.010;4.446;2022-11-18T05:41:49;7.50;99.90
47521;DHT22;32291;52.010;4.446;2022-11-18T05:43:10;7.50;99.90
47521;DHT22;32291;52.010;4.446;2022-11-18T05:44:13;7.40;99.90
47521;DHT22;32291;52.010;4.446;2022-11-18T05:45:15;7.40;99.90
47521;DHT22;32291;52.010;4.446;2022-11-18T05:46:19;7.40;99.90
47521;DHT22;32291;52.010;4.446;2022-11-18T05:47:21;7.40;99.90
47521;DHT22;32291;52.010;4.446;2022-11-18T05:48:26;7.90;99.90
47521;DHT22;32291;52.010;4.446;2022-11-18T05:49:28;7.40;99.90
47521;DHT22;32291;52.010;4.446;2022-11-18T05:50:32;7.40;99.90
47521;DHT22;32291;52.010;4.446;2022-11-18T05:51:37;7.40;99.90
47521;DHT22;32291;52.010;4.446;2022-11-18T05:52:39;7.70;99.90
47521;DHT22;32291;52.010;4.446;2022-11-18T05:53:41;7.40;99.90
47521;DHT22;32291;52.010;4.446;2022-11-18T05:54:48;7.40;99.90
47521;DHT22;32291;52.010;4.446;2022-11-18T05:56:12;7.30;99.90
47521;DHT22;32291;52.010;4.446;2022-11-18T05:57:21;7.80;99.90
47521;DHT22;32291;52.010;4.446;2022-11-18T05:58:23;7.40;99.90
47521;DHT22;32291;52.010;4.446;2022-11-18T05:59:26;7.40;99.90
47521;DHT22;32291;52.010;4.446;2022-11-18T06:00:28;7.40;99.90
47521;DHT22;32291;52.010;4.446;2022-11-18T06:02:52;7.40;99.90
47521;DHT22;32291;52.010;4.446;2022-11-18T06:03:57;7.40;99.90
47521;DHT22;32291;52.010;4.446;2022-11-18T06:05:03;7.30;99.90
47521;DHT22;32291;52.010;4.446;2022-11-18T06:06:08;7.40;99.90
47521;DHT22;32291;52.010;4.446;2022-11-18T06:07:29;7.40;99.90
47521;DHT22;32291;52.010;4.446;2022-11-18T06:08:45;7.30;99.90
47521;DHT22;32291;52.010;4.446;2022-11-18T06:10:06;7.30;99.90
47521;DHT22;32291;52.010;4.446;2022-11-18T06:11:15;7.30;99.90
47521;DHT22;32291;52.010;4.446;2022-11-18T06:12:22;7.30;99.90
47521;DHT22;32291;52.010;4.446;2022-11-18T06:13:37;7.30;99.90
47521;DHT22;32291;52.010;4.446;2022-11-18T06:15:02;7.40;99.90
47521;DHT22;32291;52.010;4.446;2022-11-18T06:16:13;7.40;99.90
47521;DHT22;32291;52.010;4.446;2022-11-18T06:17:18;7.30;99.90
47521;DHT22;32291;52.010;4.446;2022-11-18T06:18:30;7.40;99.90
47521;DHT22;32291;52.010;4.446;2022-11-18T06:19:34;7.30;99.90
47521;DHT22;32291;52.010;4.446;2022-11-18T06:20:38;7.40;99.90
47521;DHT22;32291;52.010;4.446;2022-11-18T06:21:43;7.30;99.90
47521;DHT22;32291;52.010;4.446;2022-11-18T06:22:50;7.30;99.90
47521;DHT22;32291;52.010;4.446;2022-11-18T06:23:56;7.60;99.90
47521;DHT22;32291;52.010;4.446;2022-11-18T06:25:00;7.20;99.90
47521;DHT22;32291;52.010;4.446;2022-11-18T06:26:04;7.20;99.90
47521;DHT22;32291;52.010;4.446;2022-11-18T06:27:10;7.20;99.90
47521;DHT22;32291;52.010;4.446;2022-11-18T06:28:16;7.20;99.90
47521;DHT22;32291;52.010;4.446;2022-11-18T06:29:21;7.20;99.90
47521;DHT22;32291;52.010;4.446;2022-11-18T06:30:23;7.30;99.90
47521;DHT22;32291;52.010;4.446;2022-11-18T06:31:26;7.30;99.90
47521;DHT22;32291;52.010;4.446;2022-11-18T06:32:28;7.20;99.90
47521;DHT22;32291;52.010;4.446;2022-11-18T06:33:30;7.20;99.90
47521;DHT22;32291;52.010;4.446;2022-11-18T06:34:32;7.30;99.90
47521;DHT22;32291;52.010;4.446;2022-11-18T06:35:34;7.20;99.90
47521;DHT22;32291;52.010;4.446;2022-11-18T06:36:36;7.20;99.90
47521;DHT22;32291;52.010;4.446;2022-11-18T06:37:38;7.30;99.90
47521;DHT22;32291;52.010;4.446;2022-11-18T06:38:40;7.30;99.90
47521;DHT22;32291;52.010;4.446;2022-11-18T06:39:42;7.30;99.90
47521;DHT22;32291;52.010;4.446;2022-11-18T06:40:45;7.40;99.90
47521;DHT22;32291;52.010;4.446;2022-11-18T06:41:46;7.40;99.90
47521;DHT22;32291;52.010;4.446;2022-11-18T06:42:48;7.30;99.90
47521;DHT22;32291;52.010;4.446;2022-11-18T06:44:10;7.40;99.90
47521;DHT22;32291;52.010;4.446;2022-11-18T06:45:13;7.30;99.90
47521;DHT22;32291;52.010;4.446;2022-11-18T06:46:16;7.30;99.90
47521;DHT22;32291;52.010;4.446;2022-11-18T06:47:37;7.40;99.90
47521;DHT22;32291;52.010;4.446;2022-11-18T06:48:38;7.40;99.90
47521;DHT22;32291;52.010;4.446;2022-11-18T06:49:40;7.70;99.90
47521;DHT22;32291;52.010;4.446;2022-11-18T06:50:42;7.40;99.90
47521;DHT22;32291;52.010;4.446;2022-11-18T06:51:44;7.40;99.90
47521;DHT22;32291;52.010;4.446;2022-11-18T06:52:46;7.30;99.90
47521;DHT22;32291;52.010;4.446;2022-11-18T06:53:48;7.30;99.90
47521;DHT22;32291;52.010;4.446;2022-11-18T06:54:51;7.30;99.90
47521;DHT22;32291;52.010;4.446;2022-11-18T06:55:53;7.30;99.90
47521;DHT22;32291;52.010;4.446;2022-11-18T06:56:57;7.30;99.90
47521;DHT22;32291;52.010;4.446;2022-11-18T06:57:59;7.30;99.90
47521;DHT22;32291;52.010;4.446;2022-11-18T06:59:00;7.30;99.90
47521;DHT22;32291;52.010;4.446;2022-11-18T07:00:03;7.30;99.90
47521;DHT22;32291;52.010;4.446;2022-11-18T07:02:21;7.30;99.90
47521;DHT22;32291;52.010;4.446;2022-11-18T07:03:23;7.30;99.90
47521;DHT22;32291;52.010;4.446;2022-11-18T07:04:25;7.30;99.90
47521;DHT22;32291;52.010;4.446;2022-11-18T07:05:27;7.60;99.90
47521;DHT22;32291;52.010;4.446;2022-11-18T07:06:32;7.40;99.90
47521;DHT22;32291;52.010;4.446;2022-11-18T07:07:36;7.30;99.90
47521;DHT22;32291;52.010;4.446;2022-11-18T07:08:39;7.40;99.90
47521;DHT22;32291;52.010;4.446;2022-11-18T07:09:43;7.40;99.90
47521;DHT22;32291;52.010;4.446;2022-11-18T07:10:51;7.50;99.90
47521;DHT22;32291;52.010;4.446;2022-11-18T07:11:54;7.50;99.90
47521;DHT22;32291;52.010;4.446;2022-11-18T07:12:56;7.50;99.90
47521;DHT22;32291;52.010;4.446;2022-11-18T07:13:58;7.50;99.90
47521;DHT22;32291;52.010;4.446;2022-11-18T07:15:01;7.60;99.90
47521;DHT22;32291;52.010;4.446;2022-11-18T07:16:23;7.60;99.90
47521;DHT22;32291;52.010;4.446;2022-11-18T07:17:29;7.60;99.90
47521;DHT22;32291;52.010;4.446;2022-11-18T07:18:34;7.70;99.90
47521;DHT22;32291;52.010;4.446;2022-11-18T07:19:41;7.70;99.90
47521;DHT22;32291;52.010;4.446;2022-11-18T07:20:43;7.70;99.90
47521;DHT22;32291;52.010;4.446;2022-11-18T07:21:46;7.80;99.90
47521;DHT22;32291;52.010;4.446;2022-11-18T07:22:51;7.90;99.90
47521;DHT22;32291;52.010;4.446;2022-11-18T07:23:55;7.80;99.90
47521;DHT22;32291;52.010;4.446;2022-11-18T07:24:57;8.00;99.90
47521;DHT22;32291;52.010;4.446;2022-11-18T07:26:00;8.00;99.90
47521;DHT22;32291;52.010;4.446;2022-11-18T07:27:02;8.00;99.90
47521;DHT22;32291;52.010;4.446;2022-11-18T07:28:05;8.00;99.90
47521;DHT22;32291;52.010;4.446;2022-11-18T07:29:07;8.00;99.90
47521;DHT22;32291;52.010;4.446;2022-11-18T07:30:09;8.00;99.90
47521;DHT22;32291;52.010;4.446;2022-11-18T07:31:17;8.10;99.90
47521;DHT22;32291;52.010;4.446;2022-11-18T07:32:20;8.10;99.90
47521;DHT22;32291;52.010;4.446;2022-11-18T07:33:22;8.10;99.90
47521;DHT22;32291;52.010;4.446;2022-11-18T07:34:24;8.10;99.90
47521;DHT22;32291;52.010;4.446;2022-11-18T07:35:27;8.10;99.90